CheckWX is a tool to help pilots better visualize weather data.  It is not intended as a substitute for an official pre-flight weather briefing.

17:59:47 UTC

KPWK METAR
Chicago Executive Airport
Chicago/Prospect Heights/Wheeling, Illinois, USA
Current

1 hour ago

KPWK 251652Z 14007KT 10SM CLR 24/11 A3013 RMK AO2 SLP199 T02440111
Observed
Aug-25 @ 16:52 UTC
Wind
  • 140° at 7 KTS
Visibility
10 SM
Flight Rules
VFR
Cloud Levels
  • Clear skies
Temperature
24°C / 75°F
Dewpoint
11°C / 52°F
Humidity
44%
Altimeter
30.13" Hg
Pressure
1020.32 hPa
Previous

2 hours ago

KPWK 251552Z 12008KT 10SM CLR 23/12 A3014 RMK AO2 SLP205 T02330122
Observed
Aug-25 @ 15:52 UTC
Wind
  • 120° at 8 KTS
Visibility
10 SM
Flight Rules
VFR
Cloud Levels
  • Clear skies
Temperature
23°C / 73°F
Dewpoint
12°C / 54°F
Humidity
50%
Altimeter
30.14" Hg
Pressure
1020.62 hPa
Previous

3 hours ago

KPWK 251452Z 11006KT 10SM CLR 23/13 A3014 RMK AO2 SLP203 T02280128 58008
Observed
Aug-25 @ 14:52 UTC
Wind
  • 110° at 6 KTS
Visibility
10 SM
Flight Rules
VFR
Cloud Levels
  • Clear skies
Temperature
23°C / 73°F
Dewpoint
13°C / 55°F
Humidity
53%
Altimeter
30.14" Hg
Pressure
1020.62 hPa